sensor_id;sensor_type;location;lat;lon;timestamp;P1;durP1;ratioP1;P2;durP2;ratioP2
13090;SDS011;6611;52.604;13.438;2023-06-14T00:03:53;2.13;;;1.80;;
13090;SDS011;6611;52.604;13.438;2023-06-14T00:08:55;1.40;;;1.30;;
13090;SDS011;6611;52.604;13.438;2023-06-14T00:13:58;2.07;;;1.70;;
13090;SDS011;6611;52.604;13.438;2023-06-14T00:19:00;2.03;;;1.57;;
13090;SDS011;6611;52.604;13.438;2023-06-14T00:24:03;1.90;;;1.60;;
13090;SDS011;6611;52.604;13.438;2023-06-14T00:29:07;1.80;;;1.60;;
13090;SDS011;6611;52.604;13.438;2023-06-14T00:34:09;1.70;;;1.40;;
13090;SDS011;6611;52.604;13.438;2023-06-14T00:39:10;2.23;;;1.87;;
13090;SDS011;6611;52.604;13.438;2023-06-14T00:44:13;2.37;;;1.80;;
13090;SDS011;6611;52.604;13.438;2023-06-14T00:49:17;2.37;;;1.90;;
13090;SDS011;6611;52.604;13.438;2023-06-14T00:54:20;5.10;;;1.70;;
13090;SDS011;6611;52.604;13.438;2023-06-14T00:59:23;2.30;;;2.00;;
13090;SDS011;6611;52.604;13.438;2023-06-14T01:04:26;1.70;;;1.60;;
13090;SDS011;6611;52.604;13.438;2023-06-14T01:09:29;2.40;;;1.93;;
13090;SDS011;6611;52.604;13.438;2023-06-14T01:14:38;2.07;;;1.87;;
13090;SDS011;6611;52.604;13.438;2023-06-14T01:19:40;2.67;;;2.10;;
13090;SDS011;6611;52.604;13.438;2023-06-14T01:24:44;2.40;;;1.90;;
13090;SDS011;6611;52.604;13.438;2023-06-14T01:29:46;3.17;;;2.03;;
13090;SDS011;6611;52.604;13.438;2023-06-14T01:34:47;2.60;;;1.90;;
13090;SDS011;6611;52.604;13.438;2023-06-14T01:39:50;3.03;;;2.07;;
13090;SDS011;6611;52.604;13.438;2023-06-14T01:44:52;2.73;;;2.00;;
13090;SDS011;6611;52.604;13.438;2023-06-14T01:49:55;2.93;;;2.23;;
13090;SDS011;6611;52.604;13.438;2023-06-14T01:54:58;2.87;;;2.23;;
13090;SDS011;6611;52.604;13.438;2023-06-14T02:00:02;3.77;;;2.03;;
13090;SDS011;6611;52.604;13.438;2023-06-14T02:05:04;3.50;;;2.30;;
13090;SDS011;6611;52.604;13.438;2023-06-14T02:10:08;3.37;;;2.90;;
13090;SDS011;6611;52.604;13.438;2023-06-14T02:15:10;3.87;;;2.60;;
13090;SDS011;6611;52.604;13.438;2023-06-14T02:20:16;2.70;;;2.20;;
13090;SDS011;6611;52.604;13.438;2023-06-14T02:25:20;3.07;;;2.57;;
13090;SDS011;6611;52.604;13.438;2023-06-14T02:30:21;3.13;;;2.43;;
13090;SDS011;6611;52.604;13.438;2023-06-14T02:35:23;3.03;;;2.73;;
13090;SDS011;6611;52.604;13.438;2023-06-14T02:40:27;3.50;;;2.47;;
13090;SDS011;6611;52.604;13.438;2023-06-14T02:45:29;2.53;;;2.20;;
13090;SDS011;6611;52.604;13.438;2023-06-14T02:50:31;3.57;;;2.57;;
13090;SDS011;6611;52.604;13.438;2023-06-14T02:55:34;5.20;;;2.40;;
13090;SDS011;6611;52.604;13.438;2023-06-14T03:00:39;3.00;;;2.20;;
13090;SDS011;6611;52.604;13.438;2023-06-14T03:05:43;3.57;;;2.47;;
13090;SDS011;6611;52.604;13.438;2023-06-14T03:10:49;2.43;;;2.10;;
13090;SDS011;6611;52.604;13.438;2023-06-14T03:15:50;2.70;;;2.30;;
13090;SDS011;6611;52.604;13.438;2023-06-14T03:20:52;2.93;;;2.40;;
13090;SDS011;6611;52.604;13.438;2023-06-14T03:25:55;5.60;;;2.27;;
13090;SDS011;6611;52.604;13.438;2023-06-14T03:30:57;2.40;;;2.20;;
13090;SDS011;6611;52.604;13.438;2023-06-14T03:35:58;3.77;;;2.30;;
13090;SDS011;6611;52.604;13.438;2023-06-14T03:41:01;3.90;;;2.20;;
13090;SDS011;6611;52.604;13.438;2023-06-14T03:46:03;3.30;;;2.53;;
13090;SDS011;6611;52.604;13.438;2023-06-14T03:51:05;5.07;;;2.73;;
13090;SDS011;6611;52.604;13.438;2023-06-14T03:56:08;3.77;;;2.70;;
13090;SDS011;6611;52.604;13.438;2023-06-14T04:01:09;4.23;;;2.80;;
13090;SDS011;6611;52.604;13.438;2023-06-14T04:06:12;3.13;;;2.83;;
13090;SDS011;6611;52.604;13.438;2023-06-14T04:11:20;3.60;;;2.90;;
13090;SDS011;6611;52.604;13.438;2023-06-14T04:16:22;4.10;;;2.90;;
13090;SDS011;6611;52.604;13.438;2023-06-14T04:21:24;4.13;;;3.30;;
13090;SDS011;6611;52.604;13.438;2023-06-14T04:26:29;3.40;;;2.63;;
13090;SDS011;6611;52.604;13.438;2023-06-14T04:31:33;5.27;;;3.30;;
13090;SDS011;6611;52.604;13.438;2023-06-14T04:36:37;4.50;;;2.77;;
13090;SDS011;6611;52.604;13.438;2023-06-14T04:41:40;4.30;;;3.03;;
13090;SDS011;6611;52.604;13.438;2023-06-14T04:46:42;5.77;;;2.80;;
13090;SDS011;6611;52.604;13.438;2023-06-14T04:51:46;5.73;;;3.67;;
13090;SDS011;6611;52.604;13.438;2023-06-14T04:56:52;3.80;;;3.40;;
13090;SDS011;6611;52.604;13.438;2023-06-14T05:01:55;3.77;;;3.07;;
13090;SDS011;6611;52.604;13.438;2023-06-14T05:06:57;5.43;;;3.30;;
13090;SDS011;6611;52.604;13.438;2023-06-14T05:12:00;7.20;;;3.47;;
13090;SDS011;6611;52.604;13.438;2023-06-14T05:17:01;3.87;;;3.37;;
13090;SDS011;6611;52.604;13.438;2023-06-14T05:22:03;4.73;;;3.03;;
13090;SDS011;6611;52.604;13.438;2023-06-14T05:27:06;5.03;;;3.17;;
13090;SDS011;6611;52.604;13.438;2023-06-14T05:32:08;3.70;;;3.30;;
13090;SDS011;6611;52.604;13.438;2023-06-14T05:37:10;4.30;;;3.30;;
13090;SDS011;6611;52.604;13.438;2023-06-14T05:42:13;3.20;;;2.80;;
13090;SDS011;6611;52.604;13.438;2023-06-14T05:47:14;5.57;;;3.63;;
13090;SDS011;6611;52.604;13.438;2023-06-14T05:52:16;4.80;;;2.63;;
13090;SDS011;6611;52.604;13.438;2023-06-14T05:57:19;4.90;;;3.00;;
13090;SDS011;6611;52.604;13.438;2023-06-14T06:02:21;4.00;;;3.10;;
13090;SDS011;6611;52.604;13.438;2023-06-14T06:07:23;6.37;;;3.20;;
13090;SDS011;6611;52.604;13.438;2023-06-14T06:12:26;6.20;;;3.30;;
13090;SDS011;6611;52.604;13.438;2023-06-14T06:17:27;3.37;;;3.00;;
13090;SDS011;6611;52.604;13.438;2023-06-14T06:22:29;4.80;;;3.40;;
13090;SDS011;6611;52.604;13.438;2023-06-14T06:27:32;4.27;;;2.87;;
13090;SDS011;6611;52.604;13.438;2023-06-14T06:32:36;3.80;;;3.20;;
13090;SDS011;6611;52.604;13.438;2023-06-14T06:37:37;5.43;;;3.47;;
13090;SDS011;6611;52.604;13.438;2023-06-14T06:42:40;3.50;;;2.83;;
13090;SDS011;6611;52.604;13.438;2023-06-14T06:47:42;4.93;;;2.97;;
13090;SDS011;6611;52.604;13.438;2023-06-14T06:52:44;3.33;;;2.83;;
13090;SDS011;6611;52.604;13.438;2023-06-14T06:57:47;5.83;;;2.57;;
13090;SDS011;6611;52.604;13.438;2023-06-14T07:02:52;4.40;;;2.67;;
13090;SDS011;6611;52.604;13.438;2023-06-14T07:07:55;3.50;;;2.43;;
13090;SDS011;6611;52.604;13.438;2023-06-14T07:12:58;4.27;;;2.93;;
13090;SDS011;6611;52.604;13.438;2023-06-14T07:18:00;4.90;;;2.93;;
13090;SDS011;6611;52.604;13.438;2023-06-14T07:23:02;3.67;;;2.70;;
13090;SDS011;6611;52.604;13.438;2023-06-14T07:28:05;3.27;;;2.83;;
13090;SDS011;6611;52.604;13.438;2023-06-14T07:33:07;4.60;;;2.70;;
13090;SDS011;6611;52.604;13.438;2023-06-14T07:38:11;5.50;;;3.37;;
13090;SDS011;6611;52.604;13.438;2023-06-14T07:43:14;5.87;;;2.97;;
13090;SDS011;6611;52.604;13.438;2023-06-14T07:48:16;4.70;;;3.00;;
13090;SDS011;6611;52.604;13.438;2023-06-14T07:53:18;5.03;;;3.03;;
13090;SDS011;6611;52.604;13.438;2023-06-14T07:58:21;4.47;;;2.40;;
13090;SDS011;6611;52.604;13.438;2023-06-14T08:03:23;3.63;;;2.53;;
13090;SDS011;6611;52.604;13.438;2023-06-14T08:08:25;3.27;;;2.60;;
13090;SDS011;6611;52.604;13.438;2023-06-14T08:13:28;4.97;;;2.57;;
13090;SDS011;6611;52.604;13.438;2023-06-14T08:18:30;4.03;;;2.93;;
13090;SDS011;6611;52.604;13.438;2023-06-14T08:23:32;3.87;;;3.03;;
13090;SDS011;6611;52.604;13.438;2023-06-14T08:28:35;3.53;;;2.23;;
13090;SDS011;6611;52.604;13.438;2023-06-14T08:33:36;2.00;;;1.90;;
13090;SDS011;6611;52.604;13.438;2023-06-14T08:38:39;3.13;;;2.23;;
13090;SDS011;6611;52.604;13.438;2023-06-14T08:43:42;4.53;;;2.30;;
13090;SDS011;6611;52.604;13.438;2023-06-14T08:48:44;3.73;;;2.43;;
13090;SDS011;6611;52.604;13.438;2023-06-14T08:53:46;5.80;;;2.60;;
13090;SDS011;6611;52.604;13.438;2023-06-14T08:58:54;2.63;;;2.30;;
13090;SDS011;6611;52.604;13.438;2023-06-14T09:03:57;4.60;;;2.70;;
13090;SDS011;6611;52.604;13.438;2023-06-14T09:08:59;3.23;;;2.60;;
13090;SDS011;6611;52.604;13.438;2023-06-14T09:14:02;4.13;;;2.23;;
13090;SDS011;6611;52.604;13.438;2023-06-14T09:19:04;3.07;;;2.27;;
13090;SDS011;6611;52.604;13.438;2023-06-14T09:24:06;2.97;;;2.30;;
13090;SDS011;6611;52.604;13.438;2023-06-14T09:29:17;5.33;;;2.40;;
13090;SDS011;6611;52.604;13.438;2023-06-14T09:34:19;3.73;;;2.20;;
13090;SDS011;6611;52.604;13.438;2023-06-14T09:39:23;5.80;;;2.30;;
13090;SDS011;6611;52.604;13.438;2023-06-14T09:44:27;3.47;;;2.50;;
13090;SDS011;6611;52.604;13.438;2023-06-14T09:49:30;5.87;;;2.53;;
13090;SDS011;6611;52.604;13.438;2023-06-14T09:54:32;4.50;;;2.60;;
13090;SDS011;6611;52.604;13.438;2023-06-14T09:59:41;5.40;;;2.80;;
13090;SDS011;6611;52.604;13.438;2023-06-14T10:04:46;4.20;;;2.50;;
13090;SDS011;6611;52.604;13.438;2023-06-14T10:09:52;3.23;;;2.47;;
13090;SDS011;6611;52.604;13.438;2023-06-14T10:14:56;4.90;;;3.00;;
13090;SDS011;6611;52.604;13.438;2023-06-14T10:20:02;3.70;;;2.83;;
13090;SDS011;6611;52.604;13.438;2023-06-14T10:25:26;6.17;;;2.60;;
13090;SDS011;6611;52.604;13.438;2023-06-14T10:30:30;4.07;;;2.77;;
13090;SDS011;6611;52.604;13.438;2023-06-14T10:35:32;4.07;;;2.83;;
13090;SDS011;6611;52.604;13.438;2023-06-14T10:40:34;3.00;;;2.60;;
13090;SDS011;6611;52.604;13.438;2023-06-14T10:45:38;3.23;;;2.70;;
13090;SDS011;6611;52.604;13.438;2023-06-14T10:51:16;4.03;;;2.33;;
13090;SDS011;6611;52.604;13.438;2023-06-14T10:56:24;4.57;;;2.50;;
13090;SDS011;6611;52.604;13.438;2023-06-14T11:01:31;4.13;;;2.30;;
13090;SDS011;6611;52.604;13.438;2023-06-14T11:06:46;6.00;;;2.50;;
13090;SDS011;6611;52.604;13.438;2023-06-14T11:11:48;4.10;;;2.47;;
13090;SDS011;6611;52.604;13.438;2023-06-14T11:17:00;2.78;;;2.25;;
13090;SDS011;6611;52.604;13.438;2023-06-14T11:22:01;4.17;;;2.53;;
13090;SDS011;6611;52.604;13.438;2023-06-14T11:27:03;3.53;;;2.67;;
13090;SDS011;6611;52.604;13.438;2023-06-14T11:32:08;5.00;;;2.37;;
13090;SDS011;6611;52.604;13.438;2023-06-14T11:37:12;5.73;;;2.63;;
13090;SDS011;6611;52.604;13.438;2023-06-14T11:42:14;5.77;;;2.43;;
13090;SDS011;6611;52.604;13.438;2023-06-14T11:47:17;3.43;;;2.13;;
13090;SDS011;6611;52.604;13.438;2023-06-14T11:52:19;5.00;;;2.27;;
13090;SDS011;6611;52.604;13.438;2023-06-14T11:57:21;4.20;;;2.17;;
13090;SDS011;6611;52.604;13.438;2023-06-14T12:02:24;3.67;;;2.50;;
13090;SDS011;6611;52.604;13.438;2023-06-14T12:07:29;3.03;;;2.20;;
13090;SDS011;6611;52.604;13.438;2023-06-14T12:12:31;2.93;;;2.30;;
13090;SDS011;6611;52.604;13.438;2023-06-14T12:17:38;4.00;;;2.27;;
13090;SDS011;6611;52.604;13.438;2023-06-14T12:22:50;3.70;;;2.20;;
13090;SDS011;6611;52.604;13.438;2023-06-14T12:27:53;3.43;;;1.97;;
13090;SDS011;6611;52.604;13.438;2023-06-14T12:32:56;3.00;;;2.10;;
13090;SDS011;6611;52.604;13.438;2023-06-14T12:37:57;3.10;;;2.42;;
13090;SDS011;6611;52.604;13.438;2023-06-14T12:42:59;5.03;;;2.00;;
13090;SDS011;6611;52.604;13.438;2023-06-14T12:48:02;4.97;;;2.13;;
13090;SDS011;6611;52.604;13.438;2023-06-14T12:53:04;5.05;;;2.00;;
13090;SDS011;6611;52.604;13.438;2023-06-14T12:58:06;4.75;;;2.20;;
13090;SDS011;6611;52.604;13.438;2023-06-14T13:03:09;3.88;;;2.28;;
13090;SDS011;6611;52.604;13.438;2023-06-14T13:08:11;5.70;;;2.25;;
13090;SDS011;6611;52.604;13.438;2023-06-14T13:13:13;3.40;;;1.95;;
13090;SDS011;6611;52.604;13.438;2023-06-14T13:18:16;4.03;;;1.98;;
13090;SDS011;6611;52.604;13.438;2023-06-14T13:23:18;3.40;;;2.00;;
13090;SDS011;6611;52.604;13.438;2023-06-14T13:28:19;3.50;;;2.50;;
13090;SDS011;6611;52.604;13.438;2023-06-14T13:33:22;3.43;;;2.00;;
13090;SDS011;6611;52.604;13.438;2023-06-14T13:38:25;2.10;;;1.60;;
13090;SDS011;6611;52.604;13.438;2023-06-14T13:43:27;3.17;;;2.33;;
13090;SDS011;6611;52.604;13.438;2023-06-14T13:48:30;2.22;;;2.00;;
13090;SDS011;6611;52.604;13.438;2023-06-14T13:53:32;7.17;;;2.20;;
13090;SDS011;6611;52.604;13.438;2023-06-14T13:58:33;3.40;;;1.60;;
13090;SDS011;6611;52.604;13.438;2023-06-14T14:03:36;3.03;;;2.07;;
13090;SDS011;6611;52.604;13.438;2023-06-14T14:08:38;7.37;;;2.50;;
13090;SDS011;6611;52.604;13.438;2023-06-14T14:13:40;6.20;;;2.60;;
13090;SDS011;6611;52.604;13.438;2023-06-14T14:18:44;4.13;;;2.20;;
13090;SDS011;6611;52.604;13.438;2023-06-14T14:23:46;2.73;;;2.10;;
13090;SDS011;6611;52.604;13.438;2023-06-14T14:28:49;3.70;;;1.90;;
13090;SDS011;6611;52.604;13.438;2023-06-14T14:33:53;4.83;;;2.30;;
13090;SDS011;6611;52.604;13.438;2023-06-14T14:38:54;2.73;;;2.03;;
13090;SDS011;6611;52.604;13.438;2023-06-14T14:43:56;6.23;;;2.23;;
13090;SDS011;6611;52.604;13.438;2023-06-14T14:49:00;4.10;;;2.33;;
13090;SDS011;6611;52.604;13.438;2023-06-14T14:54:02;5.63;;;2.27;;
13090;SDS011;6611;52.604;13.438;2023-06-14T14:59:05;2.57;;;1.97;;
13090;SDS011;6611;52.604;13.438;2023-06-14T15:04:08;2.47;;;2.10;;
13090;SDS011;6611;52.604;13.438;2023-06-14T15:09:10;3.83;;;2.00;;
13090;SDS011;6611;52.604;13.438;2023-06-14T15:14:11;4.40;;;1.70;;
13090;SDS011;6611;52.604;13.438;2023-06-14T15:19:17;7.70;;;1.80;;
13090;SDS011;6611;52.604;13.438;2023-06-14T15:24:19;6.07;;;2.00;;
13090;SDS011;6611;52.604;13.438;2023-06-14T15:29:20;2.17;;;1.83;;
13090;SDS011;6611;52.604;13.438;2023-06-14T15:34:23;3.03;;;1.80;;
13090;SDS011;6611;52.604;13.438;2023-06-14T15:39:25;3.73;;;2.20;;
13090;SDS011;6611;52.604;13.438;2023-06-14T15:44:30;2.93;;;1.80;;
13090;SDS011;6611;52.604;13.438;2023-06-14T15:49:33;3.53;;;2.20;;
13090;SDS011;6611;52.604;13.438;2023-06-14T15:54:35;4.50;;;2.30;;
13090;SDS011;6611;52.604;13.438;2023-06-14T15:59:36;2.30;;;1.90;;
13090;SDS011;6611;52.604;13.438;2023-06-14T16:04:39;2.93;;;1.80;;
13090;SDS011;6611;52.604;13.438;2023-06-14T16:09:41;3.03;;;2.00;;
13090;SDS011;6611;52.604;13.438;2023-06-14T16:14:43;3.03;;;1.93;;
13090;SDS011;6611;52.604;13.438;2023-06-14T16:19:46;4.87;;;2.30;;
13090;SDS011;6611;52.604;13.438;2023-06-14T16:24:48;2.00;;;1.80;;
13090;SDS011;6611;52.604;13.438;2023-06-14T16:29:49;3.63;;;2.03;;
13090;SDS011;6611;52.604;13.438;2023-06-14T16:34:52;3.10;;;2.00;;
13090;SDS011;6611;52.604;13.438;2023-06-14T16:39:54;5.37;;;2.30;;
13090;SDS011;6611;52.604;13.438;2023-06-14T16:44:56;2.87;;;1.90;;
13090;SDS011;6611;52.604;13.438;2023-06-14T16:50:02;2.63;;;2.00;;
13090;SDS011;6611;52.604;13.438;2023-06-14T16:55:03;3.60;;;2.00;;
13090;SDS011;6611;52.604;13.438;2023-06-14T17:00:06;4.30;;;2.13;;
13090;SDS011;6611;52.604;13.438;2023-06-14T17:05:09;2.47;;;2.03;;
13090;SDS011;6611;52.604;13.438;2023-06-14T17:10:11;3.47;;;2.30;;
13090;SDS011;6611;52.604;13.438;2023-06-14T17:15:13;7.73;;;2.40;;
13090;SDS011;6611;52.604;13.438;2023-06-14T17:20:16;3.37;;;2.23;;
13090;SDS011;6611;52.604;13.438;2023-06-14T17:25:18;3.27;;;2.20;;
13090;SDS011;6611;52.604;13.438;2023-06-14T17:30:20;6.17;;;2.07;;
13090;SDS011;6611;52.604;13.438;2023-06-14T17:35:23;3.63;;;1.90;;
13090;SDS011;6611;52.604;13.438;2023-06-14T17:40:25;3.57;;;2.43;;
13090;SDS011;6611;52.604;13.438;2023-06-14T17:45:26;4.20;;;2.13;;
13090;SDS011;6611;52.604;13.438;2023-06-14T17:50:29;3.40;;;1.83;;
13090;SDS011;6611;52.604;13.438;2023-06-14T17:55:32;2.73;;;2.37;;
13090;SDS011;6611;52.604;13.438;2023-06-14T18:00:34;4.43;;;2.20;;
13090;SDS011;6611;52.604;13.438;2023-06-14T18:05:37;6.23;;;2.60;;
13090;SDS011;6611;52.604;13.438;2023-06-14T18:10:40;4.97;;;2.20;;
13090;SDS011;6611;52.604;13.438;2023-06-14T18:15:42;7.27;;;2.33;;
13090;SDS011;6611;52.604;13.438;2023-06-14T18:20:45;3.70;;;2.20;;
13090;SDS011;6611;52.604;13.438;2023-06-14T18:25:47;3.57;;;2.10;;
13090;SDS011;6611;52.604;13.438;2023-06-14T18:30:48;4.07;;;2.00;;
13090;SDS011;6611;52.604;13.438;2023-06-14T18:35:51;2.57;;;2.23;;
13090;SDS011;6611;52.604;13.438;2023-06-14T18:40:53;2.50;;;2.00;;
13090;SDS011;6611;52.604;13.438;2023-06-14T18:45:55;2.27;;;2.00;;
13090;SDS011;6611;52.604;13.438;2023-06-14T18:50:58;4.37;;;2.20;;
13090;SDS011;6611;52.604;13.438;2023-06-14T18:56:00;3.73;;;2.10;;
13090;SDS011;6611;52.604;13.438;2023-06-14T19:01:01;5.13;;;2.47;;
13090;SDS011;6611;52.604;13.438;2023-06-14T19:06:04;7.13;;;2.40;;
13090;SDS011;6611;52.604;13.438;2023-06-14T19:11:06;2.87;;;2.17;;
13090;SDS011;6611;52.604;13.438;2023-06-14T19:16:08;5.37;;;2.70;;
13090;SDS011;6611;52.604;13.438;2023-06-14T19:21:12;2.73;;;2.03;;
13090;SDS011;6611;52.604;13.438;2023-06-14T19:26:14;2.90;;;2.50;;
13090;SDS011;6611;52.604;13.438;2023-06-14T19:31:15;3.70;;;2.47;;
13090;SDS011;6611;52.604;13.438;2023-06-14T19:36:19;4.20;;;2.30;;
13090;SDS011;6611;52.604;13.438;2023-06-14T19:41:21;3.23;;;2.23;;
13090;SDS011;6611;52.604;13.438;2023-06-14T19:46:25;3.03;;;2.20;;
13090;SDS011;6611;52.604;13.438;2023-06-14T19:51:28;5.63;;;2.10;;
13090;SDS011;6611;52.604;13.438;2023-06-14T19:56:30;3.83;;;2.03;;
13090;SDS011;6611;52.604;13.438;2023-06-14T20:01:31;2.97;;;2.10;;
13090;SDS011;6611;52.604;13.438;2023-06-14T20:06:34;3.00;;;1.70;;
13090;SDS011;6611;52.604;13.438;2023-06-14T20:11:36;2.80;;;1.97;;
13090;SDS011;6611;52.604;13.438;2023-06-14T20:16:38;2.50;;;2.07;;
13090;SDS011;6611;52.604;13.438;2023-06-14T20:21:41;4.37;;;2.20;;
13090;SDS011;6611;52.604;13.438;2023-06-14T20:26:42;2.47;;;1.83;;
13090;SDS011;6611;52.604;13.438;2023-06-14T20:31:44;2.40;;;2.00;;
13090;SDS011;6611;52.604;13.438;2023-06-14T20:36:47;3.43;;;1.90;;
13090;SDS011;6611;52.604;13.438;2023-06-14T20:41:49;2.80;;;2.13;;
13090;SDS011;6611;52.604;13.438;2023-06-14T20:46:50;3.13;;;2.40;;
13090;SDS011;6611;52.604;13.438;2023-06-14T20:51:54;3.70;;;1.90;;
13090;SDS011;6611;52.604;13.438;2023-06-14T20:56:56;2.67;;;1.90;;
13090;SDS011;6611;52.604;13.438;2023-06-14T21:01:58;5.47;;;2.60;;
13090;SDS011;6611;52.604;13.438;2023-06-14T21:07:01;2.73;;;1.97;;
13090;SDS011;6611;52.604;13.438;2023-06-14T21:12:03;2.97;;;2.07;;
13090;SDS011;6611;52.604;13.438;2023-06-14T21:17:06;2.77;;;2.10;;
13090;SDS011;6611;52.604;13.438;2023-06-14T21:22:10;4.30;;;2.40;;
13090;SDS011;6611;52.604;13.438;2023-06-14T21:27:11;4.50;;;2.40;;
13090;SDS011;6611;52.604;13.438;2023-06-14T21:32:13;3.70;;;2.23;;
13090;SDS011;6611;52.604;13.438;2023-06-14T21:37:16;4.87;;;2.80;;
13090;SDS011;6611;52.604;13.438;2023-06-14T21:42:17;7.70;;;2.20;;
13090;SDS011;6611;52.604;13.438;2023-06-14T21:47:19;3.30;;;1.87;;
13090;SDS011;6611;52.604;13.438;2023-06-14T21:52:22;2.30;;;1.93;;
13090;SDS011;6611;52.604;13.438;2023-06-14T21:57:24;2.37;;;2.07;;
13090;SDS011;6611;52.604;13.438;2023-06-14T22:02:26;3.27;;;2.37;;
13090;SDS011;6611;52.604;13.438;2023-06-14T22:07:29;2.87;;;2.30;;
13090;SDS011;6611;52.604;13.438;2023-06-14T22:12:31;2.53;;;1.90;;
13090;SDS011;6611;52.604;13.438;2023-06-14T22:17:33;2.83;;;2.00;;
13090;SDS011;6611;52.604;13.438;2023-06-14T22:22:37;3.47;;;2.17;;
13090;SDS011;6611;52.604;13.438;2023-06-14T22:27:39;2.47;;;1.83;;
13090;SDS011;6611;52.604;13.438;2023-06-14T22:32:45;3.13;;;2.10;;
13090;SDS011;6611;52.604;13.438;2023-06-14T22:37:50;4.73;;;2.33;;
13090;SDS011;6611;52.604;13.438;2023-06-14T22:42:51;4.80;;;2.33;;
13090;SDS011;6611;52.604;13.438;2023-06-14T22:47:53;2.93;;;2.27;;
13090;SDS011;6611;52.604;13.438;2023-06-14T22:52:56;2.57;;;2.27;;
13090;SDS011;6611;52.604;13.438;2023-06-14T22:58:04;4.80;;;2.20;;
13090;SDS011;6611;52.604;13.438;2023-06-14T23:03:06;4.20;;;2.07;;
13090;SDS011;6611;52.604;13.438;2023-06-14T23:08:09;3.93;;;2.30;;
13090;SDS011;6611;52.604;13.438;2023-06-14T23:13:11;2.13;;;1.90;;
13090;SDS011;6611;52.604;13.438;2023-06-14T23:18:12;5.23;;;2.20;;
13090;SDS011;6611;52.604;13.438;2023-06-14T23:23:16;2.83;;;2.07;;
13090;SDS011;6611;52.604;13.438;2023-06-14T23:28:18;3.40;;;2.10;;
13090;SDS011;6611;52.604;13.438;2023-06-14T23:33:19;3.80;;;2.23;;
13090;SDS011;6611;52.604;13.438;2023-06-14T23:38:22;4.27;;;2.40;;
13090;SDS011;6611;52.604;13.438;2023-06-14T23:43:24;2.90;;;2.30;;
13090;SDS011;6611;52.604;13.438;2023-06-14T23:48:27;3.53;;;2.37;;
13090;SDS011;6611;52.604;13.438;2023-06-14T23:53:30;3.13;;;2.07;;
13090;SDS011;6611;52.604;13.438;2023-06-14T23:58:33;2.33;;;2.13;;
